createdAt,value
2018-05-17T00:01:41.907Z,16.62
2018-05-17T00:04:09.416Z,16.56
2018-05-17T00:06:36.941Z,16.49
2018-05-17T00:09:04.412Z,16.48
2018-05-17T00:11:31.887Z,16.47
2018-05-17T00:13:59.371Z,16.44
2018-05-17T00:16:26.860Z,16.42
2018-05-17T00:18:54.400Z,16.39
2018-05-17T00:21:21.987Z,16.37
2018-05-17T00:23:49.434Z,16.32
2018-05-17T00:26:16.901Z,16.30
2018-05-17T00:28:44.460Z,16.27
2018-05-17T00:31:11.957Z,16.24
2018-05-17T00:33:39.412Z,16.22
2018-05-17T00:36:06.908Z,16.24
2018-05-17T00:38:34.416Z,16.24
2018-05-17T00:41:01.905Z,16.22
2018-05-17T00:43:29.428Z,16.18
2018-05-17T00:45:56.910Z,16.20
2018-05-17T00:48:24.532Z,16.14
2018-05-17T00:50:52.026Z,16.08
2018-05-17T00:53:31.399Z,16.05
2018-05-17T00:55:58.843Z,16.05
2018-05-17T00:58:26.313Z,15.98
2018-05-17T01:00:53.814Z,15.91
2018-05-17T01:03:21.286Z,15.87
2018-05-17T01:05:48.767Z,15.85
2018-05-17T01:08:16.239Z,15.84
2018-05-17T01:10:43.746Z,15.83
2018-05-17T01:13:11.247Z,15.83
2018-05-17T01:15:38.701Z,15.83
2018-05-17T01:18:06.226Z,15.82
2018-05-17T01:20:33.687Z,15.80
2018-05-17T01:23:01.174Z,15.79
2018-05-17T01:25:28.735Z,15.75
2018-05-17T01:27:56.238Z,15.70
2018-05-17T01:30:23.719Z,15.65
2018-05-17T01:32:51.291Z,15.64
2018-05-17T01:35:18.797Z,15.61
2018-05-17T01:37:58.274Z,15.58
2018-05-17T01:40:25.758Z,15.57
2018-05-17T01:42:53.253Z,15.57
2018-05-17T01:45:20.789Z,15.53
2018-05-17T01:47:48.380Z,15.50
2018-05-17T01:50:15.903Z,15.47
2018-05-17T01:52:43.388Z,15.42
2018-05-17T01:55:10.866Z,15.40
2018-05-17T01:57:38.360Z,15.37
2018-05-17T02:00:05.851Z,15.31
2018-05-17T02:02:33.370Z,15.27
2018-05-17T02:05:00.840Z,15.19
2018-05-17T02:07:28.363Z,15.14
2018-05-17T02:09:55.853Z,15.16
2018-05-17T02:12:23.326Z,15.09
2018-05-17T02:14:50.792Z,15.07
2018-05-17T02:17:18.348Z,15.07
2018-05-17T02:19:45.930Z,15.04
2018-05-17T02:22:13.340Z,14.98
2018-05-17T02:24:40.843Z,14.94
2018-05-17T02:27:08.322Z,14.95
2018-05-17T02:29:35.836Z,14.93
2018-05-17T02:32:03.307Z,14.96
2018-05-17T02:34:30.889Z,15.00
2018-05-17T02:36:58.378Z,14.98
2018-05-17T02:39:25.877Z,14.96
2018-05-17T02:41:53.387Z,14.97
2018-05-17T02:44:20.891Z,14.94
2018-05-17T02:46:48.441Z,14.89
2018-05-17T02:49:15.947Z,14.85
2018-05-17T02:51:43.493Z,14.79
2018-05-17T02:54:10.998Z,14.78
2018-05-17T02:56:38.486Z,14.80
2018-05-17T02:59:05.988Z,14.83
2018-05-17T03:01:33.478Z,14.79
2018-05-17T03:04:00.963Z,14.80
2018-05-17T03:18:45.862Z,14.68
2018-05-17T03:21:13.389Z,14.66
2018-05-17T03:23:40.923Z,14.65
2018-05-17T03:26:08.394Z,14.65
2018-05-17T03:28:35.893Z,14.63
2018-05-17T03:31:03.413Z,14.62
2018-05-17T03:33:30.920Z,14.62
2018-05-17T03:38:32.136Z,14.61
2018-05-17T03:40:59.668Z,14.59
2018-05-17T03:43:27.129Z,14.56
2018-05-17T03:45:54.589Z,14.56
2018-05-17T03:48:22.071Z,14.53
2018-05-17T03:50:49.588Z,14.53
2018-05-17T03:53:17.162Z,14.54
2018-05-17T03:55:44.614Z,14.49
2018-05-17T03:58:12.066Z,14.50
2018-05-17T04:00:51.309Z,14.46
2018-05-17T04:03:30.641Z,14.43
2018-05-17T04:06:09.900Z,14.37
2018-05-17T04:08:37.475Z,14.43
2018-05-17T04:11:04.915Z,14.51
2018-05-17T04:13:32.434Z,14.53
2018-05-17T04:15:59.900Z,14.65
2018-05-17T04:18:27.418Z,14.77
2018-05-17T04:20:54.888Z,14.74
2018-05-17T04:23:22.381Z,14.95
2018-05-17T04:25:49.912Z,15.12
2018-05-17T04:28:17.416Z,15.25
2018-05-17T04:30:44.905Z,15.29
2018-05-17T04:33:12.360Z,15.41
2018-05-17T04:35:39.833Z,15.53
2018-05-17T04:38:07.287Z,15.51
2018-05-17T04:40:34.855Z,15.48
2018-05-17T04:43:02.295Z,15.83
2018-05-17T04:45:29.785Z,16.39
2018-05-17T04:47:57.395Z,17.25
2018-05-17T04:50:24.884Z,17.97
2018-05-17T04:52:52.384Z,18.79
2018-05-17T04:55:19.864Z,19.29
2018-05-17T04:57:47.356Z,19.32
2018-05-17T05:00:14.872Z,19.22
2018-05-17T05:02:42.429Z,19.57
2018-05-17T05:05:09.895Z,19.99
2018-05-17T05:07:37.399Z,20.43
2018-05-17T05:10:04.863Z,20.14
2018-05-17T05:12:32.357Z,20.22
2018-05-17T05:14:59.885Z,19.58
2018-05-17T05:17:27.404Z,18.30
2018-05-17T05:19:54.935Z,17.50
2018-05-17T05:22:22.416Z,16.79
2018-05-17T05:24:49.979Z,16.65
2018-05-17T05:27:17.437Z,16.35
2018-05-17T05:29:44.915Z,16.19
2018-05-17T05:32:12.409Z,16.28
2018-05-17T05:34:40.006Z,16.32
2018-05-17T05:37:07.471Z,16.43
2018-05-17T05:39:34.929Z,16.59
2018-05-17T05:42:02.797Z,16.60
2018-05-17T05:44:30.293Z,16.53
2018-05-17T05:46:57.759Z,16.41
2018-05-17T05:49:25.271Z,16.50
2018-05-17T05:51:52.807Z,16.73
2018-05-17T05:54:20.295Z,16.87
2018-05-17T05:56:47.836Z,16.86
2018-05-17T05:59:15.342Z,17.04
2018-05-17T06:01:42.811Z,17.12
2018-05-17T06:04:10.305Z,17.06
2018-05-17T06:06:37.820Z,17.10
2018-05-17T06:09:06.056Z,17.29
2018-05-17T06:11:33.564Z,17.24
2018-05-17T06:14:01.042Z,17.11
2018-05-17T06:16:28.532Z,17.18
2018-05-17T06:18:57.487Z,17.53
2018-05-17T06:21:24.970Z,17.62
2018-05-17T06:23:52.624Z,17.68
2018-05-17T06:26:19.999Z,17.87
2018-05-17T06:28:47.544Z,18.00
2018-05-17T06:31:15.071Z,18.02
2018-05-17T06:33:42.547Z,18.03
2018-05-17T06:36:10.124Z,17.86
2018-05-17T06:38:37.588Z,17.83
2018-05-17T06:41:05.080Z,17.67
2018-05-17T06:43:32.581Z,17.91
2018-05-17T06:46:00.053Z,18.14
2018-05-17T06:48:27.555Z,18.10
2018-05-17T06:50:55.010Z,18.09
2018-05-17T06:53:22.540Z,18.05
2018-05-17T06:55:50.028Z,18.05
2018-05-17T06:58:17.524Z,18.11
2018-05-17T07:00:45.017Z,18.20
2018-05-17T07:03:12.513Z,18.27
2018-05-17T07:05:40.095Z,18.30
2018-05-17T07:08:07.623Z,18.23
2018-05-17T07:10:35.132Z,18.27
2018-05-17T07:13:02.596Z,18.38
2018-05-17T07:15:30.092Z,18.71
2018-05-17T07:17:57.652Z,18.76
2018-05-17T07:20:25.032Z,18.78
2018-05-17T07:22:52.479Z,18.72
2018-05-17T07:25:20.061Z,18.68
2018-05-17T07:27:47.554Z,18.54
2018-05-17T07:30:15.081Z,18.40
2018-05-17T07:32:42.599Z,18.35
2018-05-17T07:35:10.067Z,18.62
2018-05-17T07:37:37.527Z,18.65
2018-05-17T07:40:04.976Z,18.71
2018-05-17T07:42:32.468Z,18.52
2018-05-17T07:45:00.029Z,18.39
2018-05-17T07:47:27.577Z,18.47
2018-05-17T07:49:55.105Z,18.51
2018-05-17T07:52:22.614Z,18.26
2018-05-17T07:54:50.110Z,18.37
2018-05-17T07:57:17.576Z,18.47
2018-05-17T07:59:45.170Z,18.60
2018-05-17T08:02:12.677Z,18.72
2018-05-17T08:04:40.185Z,18.63
2018-05-17T08:07:07.715Z,18.48
2018-05-17T08:09:35.309Z,18.56
2018-05-17T08:12:02.818Z,18.89
2018-05-17T08:14:30.403Z,19.16
2018-05-17T08:16:57.885Z,19.25
2018-05-17T08:19:25.388Z,19.24
2018-05-17T08:21:52.943Z,19.28
2018-05-17T08:24:20.483Z,19.17
2018-05-17T08:26:47.956Z,19.14
2018-05-17T08:29:15.453Z,19.41
2018-05-17T08:31:42.986Z,19.71
2018-05-17T08:34:10.488Z,19.99
2018-05-17T08:36:38.068Z,19.81
2018-05-17T08:39:06.409Z,19.48
2018-05-17T08:41:33.904Z,19.38
2018-05-17T08:44:01.423Z,19.32
2018-05-17T08:46:28.911Z,19.36
2018-05-17T08:48:56.384Z,19.45
2018-05-17T08:51:23.929Z,19.45
2018-05-17T08:53:51.415Z,19.54
2018-05-17T08:56:18.886Z,19.72
2018-05-17T08:58:46.371Z,19.66
2018-05-17T09:01:13.935Z,19.64
2018-05-17T09:03:41.521Z,19.74
2018-05-17T09:06:09.063Z,19.79
2018-05-17T09:08:36.523Z,19.96
2018-05-17T09:11:03.971Z,19.96
2018-05-17T09:13:31.556Z,19.83
2018-05-17T09:15:59.064Z,19.77
2018-05-17T09:18:26.537Z,19.67
2018-05-17T09:20:54.016Z,19.77
2018-05-17T09:23:21.598Z,19.67
2018-05-17T09:25:49.089Z,19.60
2018-05-17T09:28:16.611Z,19.71
2018-05-17T09:30:44.103Z,19.62
2018-05-17T09:33:11.679Z,19.47
2018-05-17T09:35:39.229Z,19.44
2018-05-17T09:38:06.632Z,19.42
2018-05-17T09:40:34.142Z,19.33
2018-05-17T09:43:01.596Z,19.28
2018-05-17T09:45:29.271Z,19.49
2018-05-17T09:47:56.734Z,19.62
2018-05-17T09:50:24.196Z,19.57
2018-05-17T09:52:51.656Z,19.43
2018-05-17T09:55:19.168Z,19.37
2018-05-17T09:57:46.653Z,19.33
2018-05-17T10:00:19.781Z,19.59
2018-05-17T10:02:47.261Z,19.83
2018-05-17T10:05:14.837Z,19.99
2018-05-17T10:07:42.329Z,20.11
2018-05-17T10:10:09.948Z,19.98
2018-05-17T10:12:37.446Z,19.77
2018-05-17T10:15:04.976Z,19.65
2018-05-17T10:17:32.573Z,19.77
2018-05-17T10:20:00.069Z,19.54
2018-05-17T10:22:27.584Z,19.44
2018-05-17T10:24:55.091Z,19.50
2018-05-17T10:27:22.572Z,19.62
2018-05-17T10:29:50.037Z,19.75
2018-05-17T10:32:17.590Z,19.92
2018-05-17T10:34:45.160Z,20.04
2018-05-17T10:37:12.673Z,19.80
2018-05-17T10:39:40.188Z,19.77
2018-05-17T10:42:07.744Z,19.72
2018-05-17T10:44:35.212Z,19.59
2018-05-17T10:47:02.714Z,19.72
2018-05-17T10:49:30.232Z,19.78
2018-05-17T10:51:57.700Z,19.59
2018-05-17T10:54:25.248Z,19.66
2018-05-17T10:56:52.905Z,19.73
2018-05-17T10:59:20.411Z,19.78
2018-05-17T11:01:47.905Z,20.20
2018-05-17T11:04:15.406Z,20.40
2018-05-17T11:06:42.866Z,20.23
2018-05-17T11:09:10.327Z,20.24
2018-05-17T11:11:37.795Z,20.20
2018-05-17T11:14:05.340Z,20.32
2018-05-17T11:16:32.818Z,20.34
2018-05-17T11:19:00.321Z,20.40
2018-05-17T11:21:27.798Z,20.41
2018-05-17T11:23:55.292Z,20.31
2018-05-17T11:26:22.792Z,20.44
2018-05-17T11:28:50.296Z,20.47
2018-05-17T11:31:17.842Z,20.51
2018-05-17T11:33:45.312Z,20.67
2018-05-17T11:36:12.816Z,20.62
2018-05-17T11:38:40.329Z,20.63
2018-05-17T11:41:07.816Z,20.79
2018-05-17T11:43:35.339Z,20.90
2018-05-17T11:46:02.941Z,20.92
2018-05-17T11:48:30.420Z,20.75
2018-05-17T11:50:57.925Z,20.50
2018-05-17T11:53:25.446Z,20.51
2018-05-17T11:55:52.953Z,20.55
2018-05-17T11:58:20.441Z,20.65
2018-05-17T12:00:47.907Z,20.82
2018-05-17T12:03:15.388Z,20.81
2018-05-17T12:05:42.851Z,20.88
2018-05-17T12:08:10.360Z,20.86
2018-05-17T12:10:37.853Z,20.88
2018-05-17T12:13:05.444Z,20.99
2018-05-17T12:15:32.918Z,20.92
2018-05-17T12:18:00.366Z,21.03
2018-05-17T12:20:27.910Z,21.16
2018-05-17T12:22:55.459Z,21.14
2018-05-17T12:25:22.936Z,21.25
2018-05-17T12:27:50.425Z,21.12
2018-05-17T12:30:17.954Z,21.12
2018-05-17T12:32:45.435Z,21.34
2018-05-17T12:35:12.918Z,21.54
2018-05-17T12:37:40.409Z,21.47
2018-05-17T12:40:07.909Z,21.59
2018-05-17T12:42:35.409Z,21.39
2018-05-17T12:45:02.868Z,21.32
2018-05-17T12:47:30.410Z,21.41
2018-05-17T12:49:57.975Z,21.70
2018-05-17T12:52:25.899Z,21.75
2018-05-17T12:54:53.424Z,21.68
2018-05-17T12:57:20.934Z,21.79
2018-05-17T12:59:48.454Z,21.89
2018-05-17T13:02:15.980Z,21.79
2018-05-17T13:04:43.479Z,21.72
2018-05-17T13:07:10.997Z,21.74
2018-05-17T13:09:38.451Z,21.85
2018-05-17T13:12:06.068Z,21.77
2018-05-17T13:14:33.570Z,21.73
2018-05-17T13:17:01.078Z,21.73
2018-05-17T13:19:28.563Z,21.88
2018-05-17T13:21:56.039Z,21.93
2018-05-17T13:24:23.527Z,21.91
2018-05-17T13:26:51.027Z,22.07
2018-05-17T13:29:18.528Z,22.14
2018-05-17T13:31:45.997Z,22.27
2018-05-17T13:34:13.475Z,22.27
2018-05-17T13:36:40.959Z,22.18
2018-05-17T13:39:08.463Z,22.12
2018-05-17T13:41:35.973Z,22.05
2018-05-17T13:44:03.481Z,22.07
2018-05-17T13:46:31.028Z,22.42
2018-05-17T13:48:58.553Z,22.26
2018-05-17T13:51:26.025Z,22.15
2018-05-17T13:53:53.592Z,22.20
2018-05-17T13:56:21.099Z,22.03
2018-05-17T13:58:48.637Z,22.07
2018-05-17T14:01:16.186Z,21.88
2018-05-17T14:03:43.644Z,21.76
2018-05-17T14:06:11.227Z,21.80
2018-05-17T14:08:38.746Z,21.90
2018-05-17T14:11:06.262Z,21.96
2018-05-17T14:13:33.741Z,21.87
2018-05-17T14:16:01.224Z,21.75
2018-05-17T14:18:28.689Z,21.63
2018-05-17T14:20:56.156Z,21.60
2018-05-17T14:23:23.784Z,21.71
2018-05-17T14:25:51.296Z,21.92
2018-05-17T14:28:18.789Z,21.94
2018-05-17T14:30:46.316Z,22.05
2018-05-17T14:33:13.834Z,22.10
2018-05-17T14:35:41.333Z,22.04
2018-05-17T14:38:08.799Z,21.93
2018-05-17T14:40:36.425Z,21.95
2018-05-17T14:43:03.916Z,22.19
2018-05-17T14:45:31.372Z,22.22
2018-05-17T14:47:58.877Z,22.27
2018-05-17T14:50:26.370Z,22.19
2018-05-17T14:52:53.828Z,22.18
2018-05-17T14:55:21.316Z,22.30
2018-05-17T14:57:48.786Z,22.31
2018-05-17T15:00:16.310Z,22.28
2018-05-17T15:02:43.788Z,22.65
2018-05-17T15:05:11.310Z,23.13
2018-05-17T15:07:38.821Z,23.68
2018-05-17T15:10:06.300Z,23.85
2018-05-17T15:12:33.782Z,24.61
2018-05-17T15:15:01.354Z,25.41
2018-05-17T15:17:28.845Z,25.21
2018-05-17T15:19:56.328Z,24.82
2018-05-17T15:22:23.833Z,24.95
2018-05-17T15:24:51.304Z,24.69
2018-05-17T15:27:18.813Z,24.91
2018-05-17T15:29:46.347Z,25.04
2018-05-17T15:32:13.791Z,24.73
2018-05-17T15:34:41.303Z,24.93
2018-05-17T15:37:08.798Z,24.95
2018-05-17T15:39:36.255Z,24.84
2018-05-17T15:42:03.862Z,24.69
2018-05-17T15:44:31.355Z,24.38
2018-05-17T15:46:58.809Z,24.12
2018-05-17T15:49:26.344Z,24.57
2018-05-17T15:51:53.828Z,25.00
2018-05-17T15:54:21.313Z,25.40
2018-05-17T15:56:48.836Z,25.30
2018-05-17T15:59:16.355Z,24.80
2018-05-17T16:01:43.812Z,24.10
2018-05-17T16:04:11.306Z,23.70
2018-05-17T16:06:38.844Z,23.17
2018-05-17T16:09:06.312Z,22.84
2018-05-17T16:11:33.852Z,22.85
2018-05-17T16:14:01.341Z,22.76
2018-05-17T16:16:28.853Z,22.70
2018-05-17T16:18:56.686Z,22.53
2018-05-17T16:21:24.184Z,22.65
2018-05-17T16:23:51.800Z,22.65
2018-05-17T16:26:19.254Z,22.45
2018-05-17T16:28:46.744Z,22.33
2018-05-17T16:31:14.268Z,22.29
2018-05-17T16:33:41.842Z,22.39
2018-05-17T16:36:09.353Z,22.45
2018-05-17T16:38:36.820Z,22.41
2018-05-17T16:41:04.355Z,22.50
2018-05-17T16:43:31.917Z,22.73
2018-05-17T16:45:59.411Z,22.85
2018-05-17T16:48:26.951Z,22.80
2018-05-17T16:50:54.498Z,22.56
2018-05-17T16:53:22.017Z,22.36
2018-05-17T16:55:49.537Z,22.16
2018-05-17T16:58:17.021Z,22.10
2018-05-17T17:00:44.505Z,22.01
2018-05-17T17:03:11.984Z,21.88
2018-05-17T17:05:39.591Z,21.72
2018-05-17T17:08:07.080Z,21.65
2018-05-17T17:10:34.594Z,21.49
2018-05-17T17:13:02.043Z,21.31
2018-05-17T17:15:29.620Z,21.21
2018-05-17T17:17:57.200Z,21.16
2018-05-17T17:20:24.735Z,21.13
2018-05-17T17:22:52.288Z,21.08
2018-05-17T17:25:19.817Z,21.08
2018-05-17T17:27:47.292Z,21.01
2018-05-17T17:30:14.763Z,20.97
2018-05-17T17:32:42.267Z,20.96
2018-05-17T17:35:09.743Z,20.97
2018-05-17T17:37:37.230Z,20.96
2018-05-17T17:40:04.749Z,20.95
2018-05-17T17:42:32.722Z,20.91
2018-05-17T17:45:00.239Z,20.89
2018-05-17T17:47:27.773Z,20.86
2018-05-17T17:49:55.478Z,20.67
2018-05-17T17:52:22.993Z,20.45
2018-05-17T17:54:50.474Z,20.33
2018-05-17T17:57:17.990Z,20.29
2018-05-17T17:59:45.528Z,20.25
2018-05-17T18:02:13.011Z,20.24
2018-05-17T18:04:40.485Z,20.21
2018-05-17T18:07:07.971Z,20.12
2018-05-17T18:09:35.443Z,19.99
2018-05-17T18:12:02.933Z,19.87
2018-05-17T18:14:30.480Z,19.78
2018-05-17T18:16:59.375Z,19.68
2018-05-17T18:19:26.877Z,19.57
2018-05-17T18:21:54.437Z,19.53
2018-05-17T18:24:21.925Z,19.53
2018-05-17T18:26:49.441Z,19.52
2018-05-17T18:29:17.067Z,19.50
2018-05-17T18:31:44.580Z,19.43
2018-05-17T18:34:12.130Z,19.39
2018-05-17T18:36:39.633Z,19.34
2018-05-17T18:39:07.089Z,19.29
2018-05-17T18:41:34.539Z,19.25
2018-05-17T18:44:02.054Z,19.16
2018-05-17T18:46:29.543Z,19.10
2018-05-17T18:48:57.117Z,19.03
2018-05-17T18:51:24.567Z,18.90
2018-05-17T18:53:52.069Z,18.83
2018-05-17T18:56:19.537Z,18.80
2018-05-17T18:58:47.021Z,18.74
2018-05-17T19:01:14.538Z,18.73
2018-05-17T19:03:42.237Z,18.72
2018-05-17T19:06:10.221Z,18.68
2018-05-17T19:08:37.897Z,18.66
2018-05-17T19:11:05.398Z,18.60
2018-05-17T19:13:32.897Z,18.57
2018-05-17T19:16:00.386Z,18.53
2018-05-17T19:18:27.918Z,18.51
2018-05-17T19:20:55.523Z,18.46
2018-05-17T19:23:23.125Z,18.42
2018-05-17T19:25:50.588Z,18.39
2018-05-17T19:28:18.094Z,18.37
2018-05-17T19:30:45.568Z,18.34
2018-05-17T19:33:13.064Z,18.34
2018-05-17T19:35:40.535Z,18.30
2018-05-17T19:38:08.018Z,18.26
2018-05-17T19:40:35.505Z,18.24
2018-05-17T19:43:02.968Z,18.20
2018-05-17T19:45:30.478Z,18.16
2018-05-17T19:47:57.948Z,18.13
2018-05-17T19:50:25.543Z,18.02
2018-05-17T19:52:53.118Z,17.96
2018-05-17T19:55:20.580Z,17.93
2018-05-17T19:57:48.041Z,17.91
2018-05-17T20:00:15.633Z,17.91
2018-05-17T20:02:43.210Z,17.86
2018-05-17T20:05:10.665Z,17.75
2018-05-17T20:07:38.128Z,17.63
2018-05-17T20:10:05.585Z,17.50
2018-05-17T20:12:33.145Z,17.42
2018-05-17T20:15:00.673Z,17.32
2018-05-17T20:17:28.150Z,17.24
2018-05-17T20:19:55.644Z,17.23
2018-05-17T20:22:23.156Z,17.16
2018-05-17T20:24:50.620Z,17.08
2018-05-17T20:27:18.074Z,17.01
2018-05-17T20:29:45.543Z,16.97
2018-05-17T20:32:13.068Z,17.01
2018-05-17T20:34:40.563Z,16.96
2018-05-17T20:37:08.076Z,16.85
2018-05-17T20:39:35.712Z,16.70
2018-05-17T20:42:03.187Z,16.57
2018-05-17T20:44:30.681Z,16.48
2018-05-17T20:46:58.218Z,16.44
2018-05-17T20:49:25.714Z,16.37
2018-05-17T20:51:53.207Z,16.31
2018-05-17T20:54:20.683Z,16.23
2018-05-17T20:56:48.175Z,16.08
2018-05-17T20:59:15.709Z,15.98
2018-05-17T21:01:43.186Z,15.88
2018-05-17T21:04:10.714Z,15.85
2018-05-17T21:06:38.181Z,15.78
2018-05-17T21:09:06.475Z,15.73
2018-05-17T21:11:33.989Z,15.63
2018-05-17T21:14:01.446Z,15.53
2018-05-17T21:16:28.933Z,15.49
2018-05-17T21:18:56.447Z,15.39
2018-05-17T21:21:23.899Z,15.27
2018-05-17T21:23:51.435Z,15.21
2018-05-17T21:26:18.953Z,15.17
2018-05-17T21:28:46.422Z,15.10
2018-05-17T21:31:13.897Z,15.05
2018-05-17T21:33:41.429Z,14.94
2018-05-17T21:36:08.930Z,14.83
2018-05-17T21:38:36.458Z,14.78
2018-05-17T21:41:03.922Z,14.70
2018-05-17T21:43:31.407Z,14.63
2018-05-17T21:45:58.873Z,14.55
2018-05-17T21:48:26.344Z,14.49
2018-05-17T21:50:53.875Z,14.44
2018-05-17T21:53:21.354Z,14.38
2018-05-17T21:55:48.925Z,14.30
2018-05-17T21:58:16.477Z,14.21
2018-05-17T22:00:43.974Z,14.08
2018-05-17T22:03:11.429Z,14.07
2018-05-17T22:05:38.907Z,13.96
2018-05-17T22:08:06.455Z,13.88
2018-05-17T22:10:34.031Z,13.84
2018-05-17T22:13:01.567Z,13.78
2018-05-17T22:15:29.127Z,13.77
2018-05-17T22:17:56.583Z,13.75
2018-05-17T22:20:24.075Z,13.73
2018-05-17T22:22:51.535Z,13.64
2018-05-17T22:25:19.005Z,13.55
2018-05-17T22:27:46.469Z,13.50
2018-05-17T22:30:14.014Z,13.45
2018-05-17T22:32:41.488Z,13.38
2018-05-17T22:35:08.953Z,13.41
2018-05-17T22:40:10.298Z,13.32
2018-05-17T22:42:37.752Z,13.35
2018-05-17T22:45:05.248Z,13.35
2018-05-17T22:47:32.784Z,13.28
2018-05-17T22:50:00.276Z,13.16
2018-05-17T22:52:27.769Z,13.09
2018-05-17T22:54:55.306Z,12.99
2018-05-17T22:57:34.784Z,12.93
2018-05-17T23:00:02.290Z,12.91
2018-05-17T23:02:29.785Z,12.89
2018-05-17T23:04:57.496Z,12.84
2018-05-17T23:07:25.027Z,12.84
2018-05-17T23:09:52.593Z,12.82
2018-05-17T23:12:20.101Z,12.73
2018-05-17T23:14:47.565Z,12.66
2018-05-17T23:17:15.044Z,12.57
2018-05-17T23:19:42.591Z,12.52
2018-05-17T23:22:10.081Z,12.50
2018-05-17T23:24:37.591Z,12.48
2018-05-17T23:27:05.111Z,12.47
2018-05-17T23:29:32.589Z,12.42
2018-05-17T23:32:00.085Z,12.46
2018-05-17T23:34:27.656Z,12.46
2018-05-17T23:36:55.135Z,12.50
2018-05-17T23:39:22.598Z,12.46
2018-05-17T23:41:50.175Z,12.37
2018-05-17T23:44:17.652Z,12.29
2018-05-17T23:46:45.176Z,12.28
2018-05-17T23:49:12.707Z,12.25
2018-05-17T23:51:40.192Z,12.26
2018-05-17T23:54:07.724Z,12.25
2018-05-17T23:56:35.210Z,12.22
2018-05-17T23:59:02.709Z,12.20
